Station info - map view · info · telemetry · weather · raw · status · beacons · messages · bulletins · browse · moving · my account
Callsign, ship name or locator: Clear       
It is possible to search using wildcards (*?) after a prefix. Example: OH*
APRS station W1NSR-1 - show graphs
Map loading...
Comment: Optics is photons of fun
Mic-E message: In service
Location: 38°25.42' N 77°25.20' W - locator FM18GK91OQ - show map - static map
7.4 miles North bearing 21° from Falmouth, Stafford County, Virginia, United States [?]
8.6 miles North bearing 15° from Fredericksburg, City of Fredericksburg, Virginia, United States
38.6 miles Southwest bearing 213° from Washington, D. C., Washington, D.C., United States
73.9 miles Southwest bearing 216° from Baltimore, City of Baltimore, Maryland, United States
Last position: 2020-07-02 22:20:52 EDT (1d 22h45m ago)
2020-07-02 22:20:52 EDT local time at Falmouth, United States [?]
Altitude: 197 ft
Course: 27°
Speed: 0 MPH
Device: Kenwood: TM-D710 (rig)
Last path: W1NSR-1>S8RU4R via WIDE1-1,WIDE2-1,qAR,KM4CWX-2 (good)
Positions stored: 1013
Packet rate: 86 seconds between packets on average during 602 seconds.
Stations near current position of W1NSR-1 - show more
callsign distance last heard - EDT      callsign distance last heard - EDT
KC5BOD-N0.6 miles 99°2020-06-16 06:16:24 KM4CWX-20.7 miles 338°2020-07-04 20:41:28
W4IY-22.1 miles 31°2020-07-01 10:09:57 KN4ZSS-73.4 miles 343°2020-07-02 18:14:55
KN4ZSS-13.4 miles 342°2020-07-02 15:14:27 WU5MC-B3.7 miles 324°2020-07-04 20:56:15
WU5MC B3.7 miles 324°2020-07-04 20:56:30 WS4VA A3.7 miles 324°2020-07-04 20:49:33
WS4VA AD3.7 miles 324°2020-07-04 20:49:33 WS4VA C3.7 miles 324°2020-07-04 20:49:33
WS4VA B3.7 miles 324°2020-07-04 20:49:33 WS4VA-A3.7 miles 324°2020-07-04 20:49:18
WS4VA-B3.7 miles 324°2020-07-04 20:49:18 WS4VA-C3.7 miles 324°2020-07-04 20:49:18
KN4ZSS-53.8 miles 324°2020-07-04 15:11:30 WS4VA-104.1 miles 330°2020-07-04 20:22:12
K4MMJ-94.9 miles 322°2020-07-01 00:34:01 N7RCE B5.0 miles 300°2020-06-29 21:42:10
N7RCE-B5.0 miles 300°2020-06-29 21:42:20 EW07275.9 miles 225°2020-07-04 21:01:35
Stations which heard W1NSR-1 directly on radio –
callsign pkts first heard - EDT last heard longest (tx => rx) longest at - EDT
N3KTX-2 4 2020-07-01 08:29:10 2020-07-01 08:31:10 FM19ED > FM19GL 26.3 miles 18° 2020-07-01 08:31:10
N3HF-1 19 2020-07-01 09:01:12 2020-07-02 19:19:24 FM18EX > FM18GQ 22.2 miles 150° 2020-07-02 19:19:24
W4RAT-2 3 2020-07-01 10:39:38 2020-07-02 17:41:52 FM17GP > FM17FU 14.9 miles 340° 2020-07-01 10:39:38
W4RAT-5 1 2020-07-02 17:14:30 2020-07-02 17:14:30 FM17IM > FM17IE 22.3 miles 185° 2020-07-02 17:14:30
KE4FYL-1 5 2020-07-01 08:37:23 2020-07-02 19:23:53 FM18EX > FM19FC 10.5 miles 12° 2020-07-01 08:46:17
KB4ZIN-5 31 2020-07-01 11:17:55 2020-07-02 16:51:23 FM17SC > FM17PG 19.1 miles 311° 2020-07-01 11:42:36
KG4GIY 4 2020-07-01 09:15:08 2020-07-02 18:52:31 FM18GQ > FM18GR 3.6 miles 319° 2020-07-02 18:49:27
KV3B-1 16 2020-07-01 08:25:28 2020-07-02 19:37:18 FM18ET > FM19JE 32.9 miles 40° 2020-07-01 09:00:57
KF4HJW-12 7 2020-07-01 11:40:14 2020-07-02 16:35:42 FM17QF > FM17SB 12.8 miles 144° 2020-07-02 16:35:42
AE4ML-1 13 2020-07-01 09:48:29 2020-07-02 22:18:22 FM18GJ > FM18GH 6.7 miles 189° 2020-07-01 09:48:29
W5ODJ-5 2 2020-07-02 19:18:06 2020-07-02 19:41:19 FM18EW > FM19EF 19.9 miles 353° 2020-07-02 19:18:06
W4IIA 1 2020-07-01 10:40:07 2020-07-01 10:40:07 FM17GP > FM17GP 3.2 miles 283° 2020-07-01 10:40:07
K3DO-11 5 2020-07-01 08:24:55 2020-07-02 19:40:38 FM19ED > FM19GL 26.2 miles 18° 2020-07-02 19:36:47
W4KEL-12 26 2020-07-01 09:08:01 2020-07-02 22:17:37 FM17HP > FM08QH 79.7 miles 305° 2020-07-01 10:44:46
KM4VHX-10 1 2020-07-01 10:04:47 2020-07-01 10:04:47 FM18FG > FM18GF 3.3 miles 133° 2020-07-01 10:04:47
WC4J-3 1 2020-07-01 09:13:29 2020-07-01 09:13:29 FM18FR > FM18FT 3.3 miles 356° 2020-07-01 09:13:29
KM4CWX-2 7 2020-07-01 09:40:57 2020-07-02 22:20:52 FM18HN > FM18GK 8.7 miles 209° 2020-07-01 09:40:57
WA1STU-10 20 2020-07-01 08:56:39 2020-07-02 19:31:11 FM19EC > FM18ET 17.5 miles 175° 2020-07-02 19:31:11
W4AD-10 5 2020-07-01 09:24:06 2020-07-02 18:40:47 FM18GP > FM18IQ 7.5 miles 68° 2020-07-01 09:24:06
W4BKR-1 3 2020-07-01 10:29:23 2020-07-01 10:35:24 FM17GT > FM17GS 5.2 miles 195° 2020-07-01 10:29:23

Only position packets which were originated by the station are shown here. The range statistics show some extra long hops, because some digipeaters do not correctly add themselves to the digipeater path. Please check the raw packets.
About this site
This page shows real-time information collected from the Automatic Position Reporting System Internet network (APRS-IS). APRS is used by amateur (ham) radio operators to transmit real-time position information, weather data, telemetry and messages over the radio. A vehicle equipped with a GPS receiver, a VHF transmitter or HF transceiver and a small computer device called a tracker transmits it's location, speed and course in a small data packet, which is then received by a nearby iGate receiving site which forwards the packet on the Internet. Systems connected to the Internet can send information on the APRS-IS without a radio transmitter, or collect and display information transmitted anywhere in the world.
User guide · FAQ · Blog · Discussion group · Linking to aprs.fi · AIS sites · Service status · Database statistics · Advertising on aprs.fi · Technical details · API · Change log · Planned changes · Credits and thanks · Terms Of Service · iPhone/iPad APRS